createdAt,value
2023-01-29T00:00:16.963Z,11.03
2023-01-29T00:02:45.133Z,11.02
2023-01-29T00:05:26.935Z,11.01
2023-01-29T00:07:55.752Z,11.00
2023-01-29T00:10:23.708Z,11.00
2023-01-29T00:12:51.837Z,11.02
2023-01-29T00:15:20.865Z,11.03
2023-01-29T00:17:48.860Z,11.05
2023-01-29T00:20:19.008Z,11.09
2023-01-29T00:22:47.247Z,11.13
2023-01-29T00:25:15.224Z,11.18
2023-01-29T00:27:43.845Z,11.17
2023-01-29T00:30:13.275Z,11.18
2023-01-29T00:32:41.319Z,11.19
2023-01-29T00:35:10.303Z,11.20
2023-01-29T00:37:39.564Z,11.25
2023-01-29T00:40:08.634Z,11.27
2023-01-29T00:42:54.141Z,11.29
2023-01-29T00:45:22.052Z,11.27
2023-01-29T00:47:49.921Z,11.28
2023-01-29T00:50:18.496Z,11.28
2023-01-29T00:52:49.692Z,11.25
2023-01-29T00:55:17.703Z,11.23
2023-01-29T00:57:45.571Z,11.22
2023-01-29T01:00:15.548Z,11.20
2023-01-29T01:03:00.904Z,11.20
2023-01-29T01:05:28.989Z,11.16
2023-01-29T01:07:59.275Z,11.15
2023-01-29T01:10:27.517Z,11.14
2023-01-29T01:12:56.424Z,11.14
2023-01-29T01:15:24.986Z,11.09
2023-01-29T01:17:56.360Z,11.12
2023-01-29T01:20:24.282Z,11.09
2023-01-29T01:22:52.162Z,11.09
2023-01-29T01:25:21.845Z,11.07
2023-01-29T01:27:49.702Z,11.00
2023-01-29T01:30:18.203Z,10.97
2023-01-29T01:32:46.356Z,10.93
2023-01-29T01:35:14.836Z,10.91
2023-01-29T01:37:42.867Z,10.89
2023-01-29T01:40:18.623Z,10.90
2023-01-29T01:42:48.843Z,10.89
2023-01-29T01:45:20.313Z,10.90
2023-01-29T01:47:49.167Z,10.85
2023-01-29T01:50:18.754Z,10.99
2023-01-29T01:52:48.558Z,11.00
2023-01-29T01:55:17.658Z,11.03
2023-01-29T01:57:46.292Z,11.06
2023-01-29T02:00:17.761Z,11.10
2023-01-29T02:03:03.766Z,11.14
2023-01-29T02:05:50.618Z,11.08
2023-01-29T02:08:37.079Z,11.09
2023-01-29T02:11:05.225Z,11.10
2023-01-29T02:13:33.141Z,11.13
2023-01-29T02:16:02.476Z,11.12
2023-01-29T02:18:30.344Z,11.09
2023-01-29T02:21:07.664Z,11.07
2023-01-29T02:24:10.890Z,11.06
2023-01-29T02:26:42.060Z,11.04
2023-01-29T02:29:25.250Z,11.01
2023-01-29T02:32:03.889Z,10.96
2023-01-29T02:34:55.633Z,10.85
2023-01-29T02:37:25.007Z,10.85
2023-01-29T02:39:54.723Z,10.74
2023-01-29T02:42:27.267Z,10.83
2023-01-29T02:44:57.696Z,10.83
2023-01-29T02:47:28.894Z,10.77
2023-01-29T02:50:00.901Z,10.73
2023-01-29T02:52:30.821Z,10.71
2023-01-29T02:55:02.953Z,10.58
2023-01-29T02:57:31.776Z,10.70
2023-01-29T03:00:03.535Z,10.71
2023-01-29T03:02:33.598Z,10.72
2023-01-29T03:05:03.158Z,10.73
2023-01-29T03:07:46.511Z,10.72
2023-01-29T03:10:18.682Z,10.73
2023-01-29T03:12:47.996Z,10.73
2023-01-29T03:15:25.172Z,10.42
2023-01-29T03:17:55.566Z,10.69
2023-01-29T03:20:26.626Z,10.70
2023-01-29T03:22:57.665Z,10.70
2023-01-29T03:25:43.442Z,10.69
2023-01-29T03:28:28.951Z,10.62
2023-01-29T03:31:17.253Z,10.60
2023-01-29T03:33:47.328Z,10.55
2023-01-29T03:36:16.802Z,10.56
2023-01-29T03:38:44.793Z,10.55
2023-01-29T03:41:17.040Z,10.56
2023-01-29T03:43:48.890Z,10.57
2023-01-29T03:46:20.023Z,10.52
2023-01-29T03:48:51.160Z,10.57
2023-01-29T03:51:22.458Z,10.58
2023-01-29T03:53:52.118Z,10.60
2023-01-29T03:56:30.339Z,10.60
2023-01-29T03:58:59.865Z,10.57
2023-01-29T04:01:31.401Z,10.62
2023-01-29T04:04:02.736Z,10.57
2023-01-29T04:06:31.662Z,10.59
2023-01-29T04:09:00.864Z,10.41
2023-01-29T04:11:28.797Z,10.62
2023-01-29T04:13:56.814Z,10.63
2023-01-29T04:16:26.501Z,10.64
2023-01-29T04:18:55.880Z,10.65
2023-01-29T04:21:23.829Z,10.66
2023-01-29T04:23:51.798Z,10.69
2023-01-29T04:26:39.044Z,10.72
2023-01-29T04:29:16.347Z,10.79
2023-01-29T04:31:48.090Z,10.79
2023-01-29T04:34:22.205Z,10.70
2023-01-29T04:36:55.777Z,10.79
2023-01-29T04:39:25.853Z,10.80
2023-01-29T04:41:55.297Z,10.84
2023-01-29T04:44:24.786Z,10.87
2023-01-29T04:46:54.410Z,10.88
2023-01-29T04:49:30.901Z,10.89
2023-01-29T04:52:01.490Z,10.89
2023-01-29T04:54:34.210Z,10.84
2023-01-29T04:57:05.814Z,10.88
2023-01-29T04:59:35.006Z,10.88
2023-01-29T05:02:03.322Z,10.94
2023-01-29T05:04:33.436Z,10.88
2023-01-29T05:07:03.505Z,10.93
2023-01-29T05:09:31.373Z,10.86
2023-01-29T05:11:59.296Z,10.93
2023-01-29T05:14:28.187Z,10.94
2023-01-29T05:16:56.319Z,10.92
2023-01-29T05:19:24.222Z,11.00
2023-01-29T05:21:53.483Z,11.03
2023-01-29T05:24:22.624Z,11.04
2023-01-29T05:27:08.523Z,11.06
2023-01-29T05:29:36.584Z,11.09
2023-01-29T05:32:04.561Z,11.11
2023-01-29T05:34:32.525Z,11.12
2023-01-29T05:37:01.812Z,11.10
2023-01-29T05:39:30.070Z,11.10
2023-01-29T05:41:58.231Z,11.11
2023-01-29T05:44:26.225Z,11.11
2023-01-29T05:46:54.197Z,11.11
2023-01-29T05:49:22.568Z,11.13
2023-01-29T05:51:50.469Z,11.11
2023-01-29T05:54:19.725Z,11.13
2023-01-29T05:56:47.600Z,11.13
2023-01-29T05:59:16.413Z,11.14
2023-01-29T06:01:44.430Z,11.16
2023-01-29T06:04:12.395Z,11.15
2023-01-29T06:06:40.299Z,11.17
2023-01-29T06:09:08.209Z,11.19
2023-01-29T06:11:37.476Z,11.22
2023-01-29T06:14:05.401Z,11.20
2023-01-29T06:16:33.402Z,11.21
2023-01-29T06:19:01.346Z,11.22
2023-01-29T06:21:29.445Z,11.20
2023-01-29T06:23:57.387Z,11.25
2023-01-29T06:26:25.326Z,11.27
2023-01-29T06:28:54.589Z,11.30
2023-01-29T06:31:37.365Z,11.28
2023-01-29T06:34:06.127Z,11.28
2023-01-29T06:36:34.011Z,11.29
2023-01-29T06:39:01.910Z,11.28
2023-01-29T06:41:29.850Z,11.29
2023-01-29T06:43:59.094Z,11.30
2023-01-29T06:46:27.068Z,11.33
2023-01-29T06:48:55.091Z,11.35
2023-01-29T06:51:23.338Z,11.38
2023-01-29T06:53:51.300Z,11.41
2023-01-29T06:56:19.240Z,11.41
2023-01-29T06:58:47.084Z,11.45
2023-01-29T07:01:33.379Z,11.44
2023-01-29T07:04:03.782Z,11.47
2023-01-29T07:06:31.767Z,11.51
2023-01-29T07:08:59.716Z,11.55
2023-01-29T07:11:27.591Z,11.59
2023-01-29T07:13:55.469Z,11.53
2023-01-29T07:16:25.126Z,11.64
2023-01-29T07:18:53.201Z,11.65
2023-01-29T07:21:21.093Z,11.69
2023-01-29T07:23:49.009Z,11.74
2023-01-29T07:26:16.973Z,11.78
2023-01-29T07:28:44.960Z,11.80
2023-01-29T07:31:13.730Z,11.82
2023-01-29T07:33:43.914Z,11.83
2023-01-29T07:36:11.962Z,11.83
2023-01-29T07:38:39.961Z,11.86
2023-01-29T07:41:07.923Z,11.86
2023-01-29T07:43:36.067Z,11.89
2023-01-29T07:46:04.551Z,11.93
2023-01-29T07:48:32.815Z,11.93
2023-01-29T07:51:02.119Z,11.94
2023-01-29T07:53:30.333Z,11.96
2023-01-29T07:55:58.359Z,12.04
2023-01-29T07:58:26.471Z,12.14
2023-01-29T08:00:54.841Z,12.17
2023-01-29T08:03:22.807Z,12.34
2023-01-29T08:05:51.149Z,12.38
2023-01-29T08:08:20.559Z,12.44
2023-01-29T08:10:48.645Z,12.49
2023-01-29T08:13:16.615Z,12.54
2023-01-29T08:15:46.160Z,12.54
2023-01-29T08:18:14.811Z,12.65
2023-01-29T08:20:42.900Z,12.67
2023-01-29T08:23:15.653Z,12.71
2023-01-29T08:25:45.028Z,12.72
2023-01-29T08:28:13.106Z,12.78
2023-01-29T08:30:41.091Z,12.81
2023-01-29T08:33:09.083Z,12.82
2023-01-29T08:35:37.133Z,12.87
2023-01-29T08:38:05.666Z,12.86
2023-01-29T08:40:34.547Z,12.89
2023-01-29T08:43:06.148Z,12.90
2023-01-29T08:45:35.914Z,12.82
2023-01-29T08:48:04.363Z,12.88
2023-01-29T08:50:34.477Z,12.95
2023-01-29T08:53:02.644Z,12.97
2023-01-29T08:55:30.564Z,13.00
2023-01-29T08:57:58.566Z,13.04
2023-01-29T09:00:27.996Z,13.06
2023-01-29T09:02:56.157Z,13.12
2023-01-29T09:05:24.206Z,13.13
2023-01-29T09:07:54.180Z,13.15
2023-01-29T09:10:22.244Z,13.18
2023-01-29T09:12:50.527Z,13.23
2023-01-29T09:15:18.867Z,13.26
2023-01-29T09:17:49.521Z,13.32
2023-01-29T09:20:18.106Z,13.35
2023-01-29T09:22:46.109Z,13.36
2023-01-29T09:25:14.596Z,13.37
2023-01-29T09:27:43.215Z,13.39
2023-01-29T09:30:12.486Z,13.41
2023-01-29T09:32:56.026Z,13.44
2023-01-29T09:35:25.633Z,13.48
2023-01-29T09:37:53.845Z,13.46
2023-01-29T09:40:27.002Z,13.50
2023-01-29T09:42:57.659Z,13.46
2023-01-29T09:45:26.176Z,13.63
2023-01-29T09:47:54.231Z,13.65
2023-01-29T09:50:24.757Z,13.67
2023-01-29T09:52:54.589Z,13.67
2023-01-29T09:55:24.047Z,13.72
2023-01-29T09:57:53.402Z,13.76
2023-01-29T10:00:26.104Z,13.76
2023-01-29T10:03:00.770Z,13.73
2023-01-29T10:05:37.269Z,13.73
2023-01-29T10:08:17.573Z,13.73
2023-01-29T10:10:49.981Z,13.69
2023-01-29T10:13:23.116Z,13.77
2023-01-29T10:16:06.458Z,13.71
2023-01-29T10:19:07.127Z,13.72
2023-01-29T10:21:48.019Z,13.76
2023-01-29T10:24:23.849Z,13.80
2023-01-29T10:26:52.044Z,13.87
2023-01-29T10:29:22.075Z,13.90
2023-01-29T10:31:52.323Z,13.93
2023-01-29T10:34:24.755Z,13.94
2023-01-29T10:36:52.891Z,13.96
2023-01-29T10:39:22.922Z,14.00
2023-01-29T10:42:01.702Z,13.96
2023-01-29T10:44:38.184Z,13.90
2023-01-29T10:47:14.297Z,13.82
2023-01-29T10:49:58.996Z,13.78
2023-01-29T10:52:34.069Z,13.72
2023-01-29T10:55:09.155Z,13.79
2023-01-29T10:57:46.450Z,13.90
2023-01-29T11:00:17.880Z,13.89
2023-01-29T11:02:46.551Z,13.94
2023-01-29T11:05:20.398Z,13.98
2023-01-29T11:07:48.393Z,14.08
2023-01-29T11:10:19.135Z,14.16
2023-01-29T11:12:47.146Z,14.23
2023-01-29T11:15:18.009Z,14.37
2023-01-29T11:18:07.238Z,14.48
2023-01-29T11:20:35.339Z,14.49
2023-01-29T11:23:03.210Z,14.56
2023-01-29T11:25:33.561Z,14.57
2023-01-29T11:28:02.104Z,14.55
2023-01-29T11:30:31.349Z,14.60
2023-01-29T11:33:08.599Z,14.64
2023-01-29T11:35:36.697Z,14.64
2023-01-29T11:38:09.139Z,14.62
2023-01-29T11:40:40.335Z,14.67
2023-01-29T11:43:19.823Z,14.68
2023-01-29T11:45:47.950Z,14.69
2023-01-29T11:48:16.779Z,14.62
2023-01-29T11:50:44.810Z,14.40
2023-01-29T11:53:36.186Z,14.24
2023-01-29T11:56:08.383Z,14.27
2023-01-29T11:58:36.544Z,14.29
2023-01-29T12:01:04.586Z,14.40
2023-01-29T12:03:35.669Z,14.39
2023-01-29T12:06:05.268Z,14.41
2023-01-29T12:08:35.178Z,14.38
2023-01-29T12:11:12.759Z,14.31
2023-01-29T12:13:42.446Z,14.34
2023-01-29T12:16:17.549Z,14.40
2023-01-29T12:18:47.832Z,14.39
2023-01-29T12:21:21.222Z,14.34
2023-01-29T12:23:52.821Z,14.36
2023-01-29T12:26:24.285Z,14.35
2023-01-29T12:28:55.930Z,14.30
2023-01-29T12:31:28.571Z,14.14
2023-01-29T12:33:59.689Z,14.17
2023-01-29T12:36:29.122Z,14.13
2023-01-29T12:38:59.017Z,14.12
2023-01-29T12:41:33.814Z,14.02
2023-01-29T12:44:04.534Z,14.10
2023-01-29T12:46:34.819Z,14.11
2023-01-29T12:49:04.438Z,14.07
2023-01-29T12:51:35.053Z,13.98
2023-01-29T12:54:05.238Z,13.95
2023-01-29T12:56:36.997Z,13.91
2023-01-29T12:59:06.588Z,13.92
2023-01-29T13:01:35.737Z,13.93
2023-01-29T13:04:05.020Z,13.88
2023-01-29T13:06:34.455Z,13.86
2023-01-29T13:09:05.082Z,13.74
2023-01-29T13:11:38.286Z,13.76
2023-01-29T13:14:08.583Z,13.73
2023-01-29T13:16:39.103Z,13.72
2023-01-29T13:19:07.869Z,13.69
2023-01-29T13:21:39.132Z,13.48
2023-01-29T13:24:11.290Z,13.77
2023-01-29T13:26:40.729Z,13.78
2023-01-29T13:29:08.650Z,13.83
2023-01-29T13:31:37.073Z,13.90
2023-01-29T13:34:13.120Z,13.99
2023-01-29T13:36:43.658Z,14.04
2023-01-29T13:39:20.142Z,14.14
2023-01-29T13:41:49.591Z,14.28
2023-01-29T13:44:21.808Z,14.26
2023-01-29T13:46:52.533Z,14.23
2023-01-29T13:49:34.592Z,14.20
2023-01-29T13:52:15.925Z,14.28
2023-01-29T13:54:51.028Z,14.41
2023-01-29T14:00:35.511Z,14.88
2023-01-29T14:04:06.203Z,14.95
2023-01-29T14:06:52.331Z,14.79
2023-01-29T14:09:49.998Z,14.60
2023-01-29T14:12:49.079Z,14.32
2023-01-29T14:15:21.764Z,14.17
2023-01-29T14:18:07.477Z,14.16
2023-01-29T14:20:45.648Z,14.13
2023-01-29T14:23:23.776Z,14.12
2023-01-29T14:25:51.698Z,14.09
2023-01-29T14:28:22.509Z,14.08
2023-01-29T14:30:51.999Z,14.01
2023-01-29T14:33:28.349Z,13.92
2023-01-29T14:35:57.435Z,13.81
2023-01-29T14:38:26.052Z,13.72
2023-01-29T14:40:55.008Z,13.67
2023-01-29T14:43:23.367Z,13.67
2023-01-29T14:45:52.742Z,13.63
2023-01-29T14:48:39.655Z,13.61
2023-01-29T14:51:10.660Z,13.57
2023-01-29T14:53:54.243Z,13.60
2023-01-29T14:56:25.846Z,13.54
2023-01-29T14:58:56.156Z,13.66
2023-01-29T15:01:27.133Z,13.66
2023-01-29T15:03:56.632Z,13.55
2023-01-29T15:06:29.169Z,13.63
2023-01-29T15:09:01.454Z,13.72
2023-01-29T15:11:37.514Z,13.82
2023-01-29T15:14:27.412Z,13.84
2023-01-29T15:17:03.739Z,13.92
2023-01-29T15:19:36.024Z,13.84
2023-01-29T15:22:08.743Z,13.93
2023-01-29T15:24:37.200Z,14.04
2023-01-29T15:27:05.218Z,14.06
2023-01-29T15:29:33.101Z,14.04
2023-01-29T15:32:02.451Z,14.02
2023-01-29T15:34:30.439Z,13.98
2023-01-29T15:36:58.355Z,13.93
2023-01-29T15:39:27.837Z,13.89
2023-01-29T15:42:13.921Z,13.81
2023-01-29T15:44:45.903Z,13.74
2023-01-29T15:47:15.222Z,13.69
2023-01-29T15:49:43.109Z,13.64
2023-01-29T15:52:16.866Z,13.59
2023-01-29T15:54:44.841Z,13.55
2023-01-29T15:57:19.687Z,13.49
2023-01-29T15:59:51.762Z,13.40
2023-01-29T16:02:29.423Z,13.46
2023-01-29T16:04:57.347Z,13.47
2023-01-29T16:07:25.233Z,13.42
2023-01-29T16:09:53.183Z,13.41
2023-01-29T16:12:21.051Z,13.43
2023-01-29T16:14:49.033Z,13.43
2023-01-29T16:17:28.027Z,13.40
2023-01-29T16:19:59.603Z,13.34
2023-01-29T16:22:31.090Z,13.35
2023-01-29T16:25:02.716Z,13.36
2023-01-29T16:27:34.152Z,13.37
2023-01-29T16:30:06.117Z,13.36
2023-01-29T16:32:36.433Z,13.35
2023-01-29T16:35:06.048Z,13.35
2023-01-29T16:37:36.753Z,13.34
2023-01-29T16:40:16.187Z,13.31
2023-01-29T16:42:46.075Z,13.30
2023-01-29T16:45:28.906Z,13.27
2023-01-29T16:48:27.290Z,13.29
2023-01-29T16:51:05.286Z,13.30
2023-01-29T16:53:39.079Z,13.26
2023-01-29T16:56:12.209Z,13.24
2023-01-29T16:58:41.749Z,13.21
2023-01-29T17:01:14.900Z,13.11
2023-01-29T17:03:48.650Z,13.14
2023-01-29T17:06:22.392Z,13.05
2023-01-29T17:08:51.648Z,13.10
2023-01-29T17:11:27.312Z,13.13
2023-01-29T17:13:58.094Z,13.14
2023-01-29T17:16:30.564Z,13.13
2023-01-29T17:19:03.103Z,13.14
2023-01-29T17:21:32.794Z,13.10
2023-01-29T17:24:04.105Z,13.12
2023-01-29T17:26:37.965Z,13.13
2023-01-29T17:29:08.544Z,13.14
2023-01-29T17:31:42.944Z,13.14
2023-01-29T17:34:15.338Z,13.12
2023-01-29T17:36:43.959Z,13.05
2023-01-29T17:39:19.802Z,13.13
2023-01-29T17:41:50.194Z,13.12
2023-01-29T17:44:18.353Z,12.99
2023-01-29T17:46:48.482Z,13.09
2023-01-29T17:49:23.449Z,13.11
2023-01-29T17:51:52.187Z,13.12
2023-01-29T17:54:23.501Z,13.12
2023-01-29T17:56:51.758Z,13.13
2023-01-29T17:59:20.383Z,13.05
2023-01-29T18:01:48.375Z,13.13
2023-01-29T18:04:16.621Z,13.16
2023-01-29T18:06:55.568Z,13.11
2023-01-29T18:09:23.572Z,13.04
2023-01-29T18:11:51.616Z,13.24
2023-01-29T18:14:19.557Z,13.23
2023-01-29T18:16:47.807Z,13.26
2023-01-29T18:19:19.208Z,13.19
2023-01-29T18:21:48.604Z,13.21
2023-01-29T18:24:16.620Z,13.25
2023-01-29T18:26:44.648Z,13.06
2023-01-29T18:29:12.660Z,13.33
2023-01-29T18:31:40.620Z,13.35
2023-01-29T18:34:08.619Z,13.36
2023-01-29T18:36:36.581Z,13.35
2023-01-29T18:39:05.830Z,13.32
2023-01-29T18:41:33.721Z,13.37
2023-01-29T18:44:01.749Z,13.38
2023-01-29T18:46:29.593Z,13.40
2023-01-29T18:48:57.491Z,13.38
2023-01-29T18:51:25.478Z,13.44
2023-01-29T18:53:53.472Z,13.44
2023-01-29T18:56:22.771Z,13.46
2023-01-29T18:58:52.395Z,13.47
2023-01-29T19:01:23.303Z,13.48
2023-01-29T19:03:51.270Z,13.48
2023-01-29T19:06:19.154Z,13.52
2023-01-29T19:08:47.536Z,13.46
2023-01-29T19:11:15.442Z,13.54
2023-01-29T19:13:45.317Z,13.56
2023-01-29T19:16:13.582Z,13.57
2023-01-29T19:18:41.581Z,13.60
2023-01-29T19:21:10.514Z,13.62
2023-01-29T19:23:39.232Z,13.64
2023-01-29T19:26:08.160Z,13.65
2023-01-29T19:28:37.153Z,13.66
2023-01-29T19:31:06.735Z,13.64
2023-01-29T19:33:34.794Z,13.67
2023-01-29T19:36:04.840Z,13.67
2023-01-29T19:38:33.718Z,13.69
2023-01-29T19:41:01.840Z,13.72
2023-01-29T19:43:31.591Z,13.73
2023-01-29T19:46:01.619Z,13.75
2023-01-29T19:48:30.972Z,13.77
2023-01-29T19:51:00.214Z,13.80
2023-01-29T19:53:29.636Z,13.77
2023-01-29T19:56:01.237Z,13.77
2023-01-29T19:58:29.133Z,13.83
2023-01-29T20:01:00.694Z,13.83
2023-01-29T20:03:31.142Z,13.81
2023-01-29T20:06:02.919Z,13.86
2023-01-29T20:08:30.898Z,13.85
2023-01-29T20:10:58.922Z,13.86
2023-01-29T20:13:26.848Z,13.84
2023-01-29T20:15:55.001Z,13.84
2023-01-29T20:18:23.109Z,13.84
2023-01-29T20:20:53.151Z,13.85
2023-01-29T20:23:36.533Z,13.63
2023-01-29T20:26:06.724Z,13.87
2023-01-29T20:28:35.050Z,13.77
2023-01-29T20:31:03.130Z,13.91
2023-01-29T20:33:31.917Z,13.81
2023-01-29T20:36:05.311Z,13.93
2023-01-29T20:38:34.708Z,13.94
2023-01-29T20:41:09.415Z,13.96
2023-01-29T20:43:40.464Z,13.96
2023-01-29T20:46:09.214Z,13.85
2023-01-29T20:48:40.096Z,13.94
2023-01-29T20:51:13.692Z,14.00
2023-01-29T20:53:43.168Z,13.90
2023-01-29T20:56:11.397Z,13.98
2023-01-29T20:58:42.227Z,13.98
2023-01-29T21:01:10.486Z,13.90
2023-01-29T21:03:41.568Z,13.94
2023-01-29T21:06:11.901Z,13.77
2023-01-29T21:08:39.924Z,13.92
2023-01-29T21:11:11.369Z,13.88
2023-01-29T21:13:40.095Z,13.85
2023-01-29T21:16:11.923Z,13.87
2023-01-29T21:18:39.893Z,13.82
2023-01-29T21:21:10.854Z,13.79
2023-01-29T21:23:40.328Z,13.74
2023-01-29T21:26:10.185Z,13.68
2023-01-29T21:28:41.180Z,13.67
2023-01-29T21:31:10.091Z,13.62
2023-01-29T21:33:38.101Z,13.55
2023-01-29T21:36:06.754Z,13.50
2023-01-29T21:38:34.666Z,13.45
2023-01-29T21:41:04.543Z,13.41
2023-01-29T21:43:31.465Z,13.36
2023-01-29T21:46:00.426Z,13.34
2023-01-29T21:48:28.445Z,13.23
2023-01-29T21:50:56.323Z,13.29
2023-01-29T21:53:24.233Z,13.25
2023-01-29T21:55:52.544Z,13.17
2023-01-29T21:58:21.802Z,13.23
2023-01-29T22:00:49.759Z,13.19
2023-01-29T22:03:17.665Z,13.19
2023-01-29T22:05:45.542Z,13.17
2023-01-29T22:08:13.501Z,13.11
2023-01-29T22:10:41.671Z,13.19
2023-01-29T22:13:09.778Z,13.20
2023-01-29T22:15:39.094Z,13.23
2023-01-29T22:18:07.122Z,13.27
2023-01-29T22:20:36.732Z,13.32
2023-01-29T22:23:04.812Z,13.36
2023-01-29T22:25:33.469Z,13.40
2023-01-29T22:28:01.429Z,13.47
2023-01-29T22:30:29.353Z,13.52
2023-01-29T22:32:58.729Z,13.56
2023-01-29T22:35:26.596Z,13.58
2023-01-29T22:37:54.807Z,13.63
2023-01-29T22:40:22.729Z,13.67
2023-01-29T22:42:50.601Z,13.71
2023-01-29T22:45:18.516Z,13.74
2023-01-29T22:47:47.030Z,13.67
2023-01-29T22:50:16.752Z,13.81
2023-01-29T22:52:53.579Z,13.83
2023-01-29T22:55:21.869Z,13.86
2023-01-29T22:57:49.918Z,13.88
2023-01-29T23:00:19.165Z,13.88
2023-01-29T23:02:47.616Z,13.91
2023-01-29T23:05:17.064Z,13.93
2023-01-29T23:07:44.946Z,13.95
2023-01-29T23:10:14.679Z,13.96
2023-01-29T23:12:42.804Z,13.98
2023-01-29T23:15:11.135Z,13.91
2023-01-29T23:17:41.277Z,14.00
2023-01-29T23:20:10.277Z,14.02
2023-01-29T23:22:39.667Z,14.03
2023-01-29T23:25:08.283Z,14.06
2023-01-29T23:27:35.286Z,14.00
2023-01-29T23:30:03.238Z,14.08
2023-01-29T23:32:31.290Z,13.94
2023-01-29T23:34:59.221Z,14.09
2023-01-29T23:37:27.187Z,14.09
2023-01-29T23:39:56.474Z,14.07
2023-01-29T23:42:24.439Z,14.08
2023-01-29T23:44:52.366Z,14.05
2023-01-29T23:47:20.209Z,14.09
2023-01-29T23:49:48.105Z,14.10
2023-01-29T23:52:15.995Z,14.12
2023-01-29T23:54:43.976Z,14.13
2023-01-29T23:57:13.209Z,14.10
2023-01-29T23:59:41.121Z,14.15
